createdAt,value
2022-09-05T00:00:49.380Z,4.10
2022-09-05T00:03:57.253Z,4.32
2022-09-05T00:07:09.683Z,4.65
2022-09-05T00:10:37.469Z,4.63
2022-09-05T00:15:15.316Z,4.72
2022-09-05T00:20:01.649Z,4.75
2022-09-05T00:24:27.974Z,4.18
2022-09-05T00:25:07.247Z,3.72
2022-09-05T00:28:26.670Z,5.53
2022-09-05T00:31:54.175Z,3.42
2022-09-05T00:35:13.270Z,3.78
2022-09-05T00:38:28.496Z,4.18
2022-09-05T00:41:38.369Z,4.68
2022-09-05T00:44:58.444Z,4.53
2022-09-05T00:47:59.748Z,3.53
2022-09-05T00:51:11.220Z,5.57
2022-09-05T00:54:41.967Z,4.78
2022-09-05T00:58:02.081Z,4.40
2022-09-05T01:01:20.683Z,6.90
2022-09-05T01:04:34.714Z,3.97
2022-09-05T01:07:42.466Z,5.72
2022-09-05T01:10:53.925Z,4.18
2022-09-05T01:14:18.538Z,4.30
2022-09-05T01:17:19.918Z,4.80
2022-09-05T01:20:39.460Z,6.22
2022-09-05T01:24:04.175Z,3.72
2022-09-05T01:27:24.016Z,5.18
2022-09-05T01:30:36.468Z,4.25
2022-09-05T01:33:55.181Z,4.28
2022-09-05T01:36:59.338Z,3.70
2022-09-05T01:40:26.029Z,3.88
2022-09-05T01:43:46.226Z,4.05
2022-09-05T01:46:56.679Z,4.10
2022-09-05T01:50:05.863Z,4.93
2022-09-05T01:53:09.395Z,4.38
2022-09-05T01:56:29.188Z,3.60
2022-09-05T01:59:39.353Z,4.72
2022-09-05T02:02:40.898Z,4.25
2022-09-05T02:06:07.237Z,4.10
2022-09-05T02:09:08.676Z,4.30
2022-09-05T02:12:15.938Z,4.55
2022-09-05T02:15:22.182Z,5.47
2022-09-05T02:18:26.876Z,4.40
2022-09-05T02:21:55.403Z,4.53
2022-09-05T02:25:25.615Z,4.97
2022-09-05T02:28:44.192Z,5.88
2022-09-05T02:31:48.283Z,4.72
2022-09-05T02:35:05.034Z,4.60
2022-09-05T02:39:19.986Z,4.88
2022-09-05T02:45:06.735Z,4.13
2022-09-05T02:45:26.726Z,3.92
2022-09-05T02:48:34.659Z,5.13
2022-09-05T02:57:28.365Z,3.85
2022-09-05T02:57:38.163Z,4.93
2022-09-05T02:59:09.040Z,4.47
2022-09-05T03:02:25.530Z,4.75
2022-09-05T03:05:33.488Z,4.20
2022-09-05T03:08:46.274Z,4.65
2022-09-05T03:12:03.043Z,5.40
2022-09-05T03:15:42.470Z,6.35
2022-09-05T03:18:43.753Z,5.82
2022-09-05T03:22:03.482Z,6.13
2022-09-05T03:25:23.369Z,6.47
2022-09-05T03:28:43.671Z,6.53
2022-09-05T03:31:56.926Z,7.32
2022-09-05T03:35:08.220Z,6.10
2022-09-05T03:38:12.654Z,6.25
2022-09-05T03:41:40.622Z,6.57
2022-09-05T03:44:45.193Z,5.93
2022-09-05T03:48:23.175Z,6.20
2022-09-05T03:57:14.717Z,6.68
2022-09-05T03:57:15.714Z,6.78
2022-09-05T03:58:55.291Z,6.95
2022-09-05T04:03:30.811Z,6.63
2022-09-05T04:08:07.676Z,5.57
2022-09-05T04:08:55.198Z,5.75
2022-09-05T04:11:59.781Z,7.00
2022-09-05T04:15:07.205Z,5.55
2022-09-05T04:18:17.448Z,6.47
2022-09-05T04:21:29.177Z,6.50
2022-09-05T04:24:39.649Z,7.30
2022-09-05T04:27:48.167Z,7.22
2022-09-05T04:30:53.702Z,7.22
2022-09-05T04:33:58.134Z,6.57
2022-09-05T04:37:04.143Z,5.22
2022-09-05T04:40:24.036Z,7.60
2022-09-05T04:43:27.863Z,6.18
2022-09-05T04:46:48.852Z,5.80
2022-09-05T04:49:54.868Z,5.63
2022-09-05T04:53:22.709Z,5.70
2022-09-05T04:56:30.776Z,7.15
2022-09-05T05:03:33.343Z,7.13
2022-09-05T05:06:14.485Z,5.80
2022-09-05T05:06:45.403Z,6.03
2022-09-05T05:10:40.502Z,5.88
2022-09-05T05:17:54.427Z,4.80
2022-09-05T05:18:15.780Z,6.57
2022-09-05T05:20:43.056Z,5.20
2022-09-05T05:23:48.077Z,7.55
2022-09-05T05:27:01.418Z,6.82
2022-09-05T05:30:10.327Z,6.15
2022-09-05T05:33:33.720Z,6.70
2022-09-05T05:36:39.845Z,7.38
2022-09-05T05:39:44.319Z,5.85
2022-09-05T05:42:46.306Z,7.85
2022-09-05T05:45:55.185Z,6.95
2022-09-05T05:49:03.911Z,6.38
2022-09-05T05:52:13.779Z,7.05
2022-09-05T05:55:52.788Z,6.70
2022-09-05T05:59:13.714Z,7.18
2022-09-05T06:02:34.666Z,5.95
2022-09-05T06:05:59.661Z,6.20
2022-09-05T06:14:31.253Z,5.38
2022-09-05T06:15:06.635Z,5.65
2022-09-05T06:16:46.586Z,6.68
2022-09-05T06:20:28.786Z,7.72
2022-09-05T06:23:40.043Z,5.43
2022-09-05T06:26:50.954Z,5.70
2022-09-05T06:29:55.451Z,5.18
2022-09-05T06:33:16.587Z,6.72
2022-09-05T06:36:20.702Z,5.68
2022-09-05T06:39:37.011Z,6.95
2022-09-05T06:42:43.629Z,6.10
2022-09-05T06:49:30.010Z,6.78
2022-09-05T06:52:30.376Z,5.07
2022-09-05T06:55:50.722Z,5.28
2022-09-05T06:58:51.983Z,6.38
2022-09-05T07:02:04.700Z,5.85
2022-09-05T07:05:37.118Z,5.32
2022-09-05T07:08:47.969Z,5.82
2022-09-05T07:12:07.894Z,5.35
2022-09-05T07:15:09.478Z,5.90
2022-09-05T07:18:16.719Z,6.18
2022-09-05T07:21:50.627Z,6.70
2022-09-05T07:24:55.681Z,8.20
2022-09-05T07:28:26.258Z,6.03
2022-09-05T07:31:37.950Z,4.85
2022-09-05T07:34:39.655Z,5.22
2022-09-05T07:37:43.751Z,5.32
2022-09-05T07:41:03.795Z,4.97
2022-09-05T07:44:10.039Z,3.83
2022-09-05T07:47:23.604Z,3.95
2022-09-05T07:54:57.803Z,4.07
2022-09-05T07:57:09.636Z,3.10
2022-09-05T07:57:31.350Z,3.40
2022-09-05T08:00:32.079Z,4.72
2022-09-05T08:03:34.326Z,3.05
2022-09-05T08:07:34.725Z,4.03
2022-09-05T08:10:08.662Z,3.50
2022-09-05T08:13:24.693Z,2.63
2022-09-05T08:16:28.844Z,6.22
2022-09-05T08:19:36.926Z,3.30
2022-09-05T08:22:53.003Z,2.80
2022-09-05T08:25:58.283Z,3.67
2022-09-05T08:29:04.697Z,3.13
2022-09-05T08:32:10.403Z,2.97
2022-09-05T08:35:30.978Z,3.30
2022-09-05T08:38:38.730Z,3.60
2022-09-05T08:42:05.717Z,3.00
2022-09-05T08:46:39.461Z,2.70
2022-09-05T08:48:58.258Z,2.35
2022-09-05T08:52:04.782Z,4.53
2022-09-05T08:55:18.748Z,2.58
2022-09-05T08:58:38.951Z,2.33
2022-09-05T09:02:47.051Z,2.65
2022-09-05T09:06:11.951Z,2.92
2022-09-05T09:09:09.294Z,2.38
2022-09-05T09:15:28.246Z,2.30
2022-09-05T09:18:52.537Z,3.25
2022-09-05T09:21:56.889Z,2.13
2022-09-05T09:25:14.169Z,3.17
2022-09-05T09:28:50.507Z,2.67
2022-09-05T09:31:58.272Z,2.53
2022-09-05T09:35:06.291Z,2.90
2022-09-05T09:38:22.608Z,2.40
2022-09-05T09:41:50.254Z,2.45
2022-09-05T09:45:22.534Z,2.58
2022-09-05T09:48:28.161Z,2.55
2022-09-05T09:51:35.256Z,2.63
2022-09-05T09:54:36.529Z,2.38
2022-09-05T09:57:44.904Z,3.40
2022-09-05T10:00:59.376Z,2.63
2022-09-05T10:10:33.590Z,3.45
2022-09-05T10:10:44.035Z,2.85
2022-09-05T10:14:51.182Z,2.70
2022-09-05T10:17:52.594Z,2.58
2022-09-05T10:21:16.151Z,3.17
2022-09-05T10:24:33.984Z,2.40
2022-09-05T10:28:02.152Z,2.42
2022-09-05T10:32:00.998Z,2.53
2022-09-05T10:35:16.837Z,3.25
2022-09-05T10:37:54.798Z,2.53
2022-09-05T10:41:20.371Z,2.95
2022-09-05T10:44:48.174Z,2.60
2022-09-05T10:47:52.557Z,2.90
2022-09-05T10:51:00.917Z,2.50
2022-09-05T10:54:21.019Z,2.55
2022-09-05T10:57:40.788Z,2.55
2022-09-05T11:02:27.589Z,3.85
2022-09-05T11:04:12.755Z,2.60
2022-09-05T11:07:17.405Z,2.22
2022-09-05T11:10:37.463Z,2.85
2022-09-05T11:13:50.178Z,2.50
2022-09-05T11:16:58.858Z,3.75
2022-09-05T11:20:05.957Z,2.35
2022-09-05T11:23:19.351Z,3.85
2022-09-05T11:26:31.187Z,2.90
2022-09-05T11:29:47.258Z,3.38
2022-09-05T11:37:40.067Z,3.22
2022-09-05T11:40:06.359Z,2.72
2022-09-05T11:40:28.844Z,3.03
2022-09-05T11:43:35.254Z,2.50
2022-09-05T11:46:39.694Z,2.50
2022-09-05T11:49:42.327Z,3.47
2022-09-05T11:52:51.419Z,2.90
2022-09-05T11:56:11.831Z,3.40
2022-09-05T11:59:32.720Z,2.70
2022-09-05T12:02:49.577Z,2.47
2022-09-05T12:06:08.459Z,2.78
2022-09-05T12:09:29.447Z,2.45
2022-09-05T12:12:43.565Z,2.65
2022-09-05T12:16:07.637Z,1.88
2022-09-05T12:19:18.879Z,2.25
2022-09-05T12:22:27.337Z,2.17
2022-09-05T12:27:38.322Z,2.60
2022-09-05T12:29:32.703Z,2.42
2022-09-05T12:36:01.217Z,2.30
2022-09-05T12:40:43.555Z,1.98
2022-09-05T12:40:58.415Z,2.95
2022-09-05T12:44:38.434Z,2.30
2022-09-05T12:46:27.153Z,2.90
2022-09-05T12:49:36.941Z,2.30
2022-09-05T12:52:44.624Z,2.28
2022-09-05T12:56:13.487Z,2.08
2022-09-05T13:03:03.474Z,2.67
2022-09-05T13:03:14.501Z,1.88
2022-09-05T13:06:08.683Z,1.90
2022-09-05T13:09:16.921Z,2.03
2022-09-05T13:14:56.697Z,2.65
2022-09-05T13:15:48.452Z,2.38
2022-09-05T13:18:51.508Z,2.10
2022-09-05T13:21:55.513Z,2.22
2022-09-05T13:25:05.103Z,1.80
2022-09-05T13:28:09.286Z,1.83
2022-09-05T13:35:55.150Z,1.75
2022-09-05T13:38:06.301Z,2.95
2022-09-05T13:38:47.546Z,2.10
2022-09-05T13:41:50.828Z,2.15
2022-09-05T13:44:57.305Z,1.70
2022-09-05T13:48:19.620Z,2.45
2022-09-05T13:51:29.851Z,1.92
2022-09-05T13:54:38.147Z,3.13
2022-09-05T13:57:44.792Z,2.70
2022-09-05T14:01:01.075Z,2.13
2022-09-05T14:05:05.445Z,2.08
2022-09-05T14:07:59.407Z,2.13
2022-09-05T14:11:07.019Z,1.80
2022-09-05T14:14:12.008Z,2.17
2022-09-05T14:21:08.765Z,2.00
2022-09-05T14:24:17.259Z,2.28
2022-09-05T14:27:32.331Z,1.73
2022-09-05T14:33:19.161Z,1.92
2022-09-05T14:38:00.524Z,2.10
2022-09-05T14:38:05.820Z,2.15
2022-09-05T14:41:23.470Z,2.05
2022-09-05T14:44:24.745Z,2.72
2022-09-05T14:47:47.402Z,2.05
2022-09-05T14:50:49.381Z,2.08
2022-09-05T15:02:29.982Z,2.25
2022-09-05T15:02:49.659Z,2.40
2022-09-05T15:07:08.618Z,2.30
2022-09-05T15:12:16.499Z,2.05
2022-09-05T15:13:31.499Z,2.25
2022-09-05T15:16:38.340Z,2.65
2022-09-05T15:20:05.490Z,2.15
2022-09-05T15:23:16.337Z,2.05
2022-09-05T15:26:25.632Z,1.80
2022-09-05T15:29:27.159Z,2.65
2022-09-05T15:32:29.441Z,2.38
2022-09-05T15:35:35.852Z,2.78
2022-09-05T15:38:55.382Z,2.72
2022-09-05T15:42:17.122Z,2.80
2022-09-05T15:45:20.983Z,2.85
2022-09-05T15:48:23.785Z,2.30
2022-09-05T15:51:41.980Z,2.35
2022-09-05T15:54:49.698Z,1.83
2022-09-05T15:57:55.494Z,2.20
2022-09-05T16:00:56.955Z,2.25
2022-09-05T16:05:33.591Z,1.80
2022-09-05T16:10:28.588Z,2.15
2022-09-05T16:11:19.731Z,10.00
2022-09-05T16:14:13.847Z,3.38
2022-09-05T16:23:20.881Z,1.80
2022-09-05T16:23:28.095Z,2.17
2022-09-05T16:24:58.285Z,3.70
2022-09-05T16:28:00.855Z,1.90
2022-09-05T16:31:10.659Z,2.75
2022-09-05T16:34:17.886Z,2.08
2022-09-05T16:37:24.109Z,2.30
2022-09-05T16:40:34.871Z,3.25
2022-09-05T16:43:37.789Z,2.17
2022-09-05T16:49:49.412Z,2.88
2022-09-05T16:53:25.058Z,1.80
2022-09-05T16:56:37.799Z,1.95
2022-09-05T16:59:43.552Z,2.20
2022-09-05T17:03:05.099Z,2.58
2022-09-05T17:06:25.772Z,2.17
2022-09-05T17:09:29.154Z,1.92
2022-09-05T17:12:33.668Z,2.63
2022-09-05T17:15:36.146Z,2.35
2022-09-05T17:18:38.130Z,5.82
2022-09-05T17:23:29.270Z,2.67
2022-09-05T17:29:23.729Z,2.17
2022-09-05T17:29:34.295Z,2.55
2022-09-05T17:32:15.703Z,2.95
2022-09-05T17:35:20.910Z,2.55
2022-09-05T17:38:22.313Z,2.50
2022-09-05T17:41:29.812Z,4.07
2022-09-05T17:44:50.701Z,3.63
2022-09-05T17:47:57.528Z,3.33
2022-09-05T17:50:58.903Z,2.92
2022-09-05T17:54:00.205Z,2.90
2022-09-05T17:57:24.548Z,2.97
2022-09-05T18:00:45.424Z,3.08
2022-09-05T18:03:46.764Z,2.80
2022-09-05T18:06:58.927Z,3.22
2022-09-05T18:10:12.311Z,3.20
2022-09-05T18:13:31.907Z,2.65
2022-09-05T18:16:37.210Z,3.47
2022-09-05T18:19:45.001Z,3.78
2022-09-05T18:22:54.878Z,3.50
2022-09-05T18:26:36.514Z,3.00
2022-09-05T18:29:58.233Z,3.80
2022-09-05T18:33:56.407Z,4.88
2022-09-05T18:36:25.484Z,4.85
2022-09-05T18:39:37.118Z,3.47
2022-09-05T18:42:39.686Z,3.95
2022-09-05T18:45:52.368Z,4.47
2022-09-05T18:49:24.901Z,4.05
2022-09-05T18:52:27.533Z,4.22
2022-09-05T18:56:09.811Z,5.03
2022-09-05T18:58:53.309Z,2.90
2022-09-05T19:02:28.714Z,3.28
2022-09-05T19:05:33.182Z,3.67
2022-09-05T19:08:37.169Z,6.13
2022-09-05T19:11:52.770Z,2.80
2022-09-05T19:14:56.179Z,5.20
2022-09-05T19:18:22.878Z,3.65
2022-09-05T19:21:21.541Z,3.20
2022-09-05T19:24:30.370Z,3.92
2022-09-05T19:30:53.745Z,3.65
2022-09-05T19:36:51.375Z,5.38
2022-09-05T19:37:15.106Z,5.03
2022-09-05T19:38:01.435Z,3.35
2022-09-05T19:47:25.216Z,3.47
2022-09-05T19:47:51.105Z,3.33
2022-09-05T19:48:07.813Z,2.88
2022-09-05T19:51:16.188Z,2.95
2022-09-05T19:54:33.060Z,4.13
2022-09-05T19:57:34.445Z,3.83
2022-09-05T20:00:36.279Z,2.58
2022-09-05T20:03:40.708Z,2.72
2022-09-05T20:06:42.283Z,4.90
2022-09-05T20:09:44.606Z,4.57
2022-09-05T20:12:45.963Z,2.97
2022-09-05T20:15:47.350Z,5.90
2022-09-05T20:18:48.721Z,4.07
2022-09-05T20:21:53.798Z,5.38
2022-09-05T20:24:58.999Z,3.35
2022-09-05T20:28:09.591Z,3.30
2022-09-05T20:31:20.080Z,3.50
2022-09-05T20:35:03.638Z,3.95
2022-09-05T20:43:15.809Z,3.67
2022-09-05T20:43:22.128Z,3.20
2022-09-05T20:44:48.475Z,3.45
2022-09-05T20:51:09.268Z,4.82
2022-09-05T20:54:18.860Z,4.05
2022-09-05T20:54:39.597Z,3.83
2022-09-05T20:57:43.719Z,4.20
2022-09-05T21:01:20.925Z,3.10
2022-09-05T21:04:08.040Z,3.67
2022-09-05T21:07:14.180Z,5.28
2022-09-05T21:10:21.319Z,3.55
2022-09-05T21:13:30.201Z,4.13
2022-09-05T21:16:37.552Z,3.65
2022-09-05T21:19:39.120Z,4.40
2022-09-05T21:22:43.378Z,4.20
2022-09-05T21:25:48.611Z,3.70
2022-09-05T21:29:05.035Z,5.75
2022-09-05T21:32:10.779Z,5.05
2022-09-05T21:35:34.657Z,3.88
2022-09-05T21:38:37.364Z,7.75
2022-09-05T21:41:38.721Z,4.25
2022-09-05T21:47:39.615Z,4.00
2022-09-05T21:48:05.126Z,5.93
2022-09-05T21:51:08.334Z,4.10
2022-09-05T21:59:22.514Z,3.33
2022-09-05T21:59:33.301Z,3.63
2022-09-05T22:00:54.260Z,3.95
2022-09-05T22:03:58.132Z,4.07
2022-09-05T22:07:00.445Z,3.47
2022-09-05T22:10:04.083Z,4.38
2022-09-05T22:13:05.722Z,3.60
2022-09-05T22:16:08.834Z,3.08
2022-09-05T22:19:10.428Z,5.47
2022-09-05T22:22:16.863Z,3.45
2022-09-05T22:25:27.272Z,5.82
2022-09-05T22:31:34.899Z,4.40
2022-09-05T22:34:36.245Z,4.85
2022-09-05T22:37:39.161Z,3.95
2022-09-05T22:40:41.011Z,4.03
2022-09-05T22:43:42.306Z,3.40
2022-09-05T22:46:43.669Z,3.72
2022-09-05T22:49:45.005Z,3.70
2022-09-05T22:52:46.378Z,3.50
2022-09-05T22:55:55.001Z,3.45
2022-09-05T22:58:56.305Z,5.80
2022-09-05T23:01:58.151Z,2.90
2022-09-05T23:04:59.508Z,4.60
2022-09-05T23:08:01.323Z,4.32
2022-09-05T23:11:09.838Z,3.70
2022-09-05T23:14:11.144Z,3.13
2022-09-05T23:17:15.255Z,4.10
2022-09-05T23:23:18.655Z,3.88
2022-09-05T23:26:19.951Z,3.47
2022-09-05T23:29:21.422Z,3.55
2022-09-05T23:32:22.717Z,3.92
2022-09-05T23:35:24.023Z,3.22
2022-09-05T23:38:25.326Z,4.43
2022-09-05T23:41:26.679Z,3.63
2022-09-05T23:44:27.981Z,2.83
2022-09-05T23:47:29.843Z,4.18
2022-09-05T23:50:31.235Z,5.95
2022-09-05T23:53:32.700Z,3.88
2022-09-05T23:56:34.050Z,3.88
2022-09-05T23:59:35.342Z,3.13
